sensor_id;sensor_type;location;lat;lon;timestamp;temperature;humidity
36856;DHT22;22788;51.434;6.786;2022-12-07T00:00:30;6.10;97.30
36856;DHT22;22788;51.434;6.786;2022-12-07T00:02:56;6.10;97.30
36856;DHT22;22788;51.434;6.786;2022-12-07T00:05:24;6.00;97.50
36856;DHT22;22788;51.434;6.786;2022-12-07T00:07:50;6.00;98.10
36856;DHT22;22788;51.434;6.786;2022-12-07T00:10:16;6.00;98.30
36856;DHT22;22788;51.434;6.786;2022-12-07T00:12:42;6.00;98.00
36856;DHT22;22788;51.434;6.786;2022-12-07T00:15:09;6.00;98.40
36856;DHT22;22788;51.434;6.786;2022-12-07T00:17:35;6.00;97.50
36856;DHT22;22788;51.434;6.786;2022-12-07T00:20:05;6.00;98.70
36856;DHT22;22788;51.434;6.786;2022-12-07T00:22:32;6.00;98.10
36856;DHT22;22788;51.434;6.786;2022-12-07T00:24:58;6.00;98.00
36856;DHT22;22788;51.434;6.786;2022-12-07T00:27:24;6.00;98.40
36856;DHT22;22788;51.434;6.786;2022-12-07T00:29:50;5.90;99.50
36856;DHT22;22788;51.434;6.786;2022-12-07T00:32:17;6.00;98.70
36856;DHT22;22788;51.434;6.786;2022-12-07T00:34:43;6.00;99.30
36856;DHT22;22788;51.434;6.786;2022-12-07T00:37:09;6.00;99.50
36856;DHT22;22788;51.434;6.786;2022-12-07T00:39:36;6.00;99.20
36856;DHT22;22788;51.434;6.786;2022-12-07T00:42:02;6.00;99.20
36856;DHT22;22788;51.434;6.786;2022-12-07T00:44:31;5.90;99.80
36856;DHT22;22788;51.434;6.786;2022-12-07T00:46:57;5.90;98.70
36856;DHT22;22788;51.434;6.786;2022-12-07T00:49:23;6.00;99.00
36856;DHT22;22788;51.434;6.786;2022-12-07T00:51:49;5.90;99.10
36856;DHT22;22788;51.434;6.786;2022-12-07T00:54:15;6.00;98.20
36856;DHT22;22788;51.434;6.786;2022-12-07T00:56:43;6.20;99.00
36856;DHT22;22788;51.434;6.786;2022-12-07T00:59:12;6.00;98.80
36856;DHT22;22788;51.434;6.786;2022-12-07T01:01:38;6.00;99.30
36856;DHT22;22788;51.434;6.786;2022-12-07T01:04:05;5.90;98.60
36856;DHT22;22788;51.434;6.786;2022-12-07T01:06:31;6.00;98.10
36856;DHT22;22788;51.434;6.786;2022-12-07T01:08:58;6.00;98.50
36856;DHT22;22788;51.434;6.786;2022-12-07T01:11:26;6.00;98.90
36856;DHT22;22788;51.434;6.786;2022-12-07T01:13:57;6.00;98.40
36856;DHT22;22788;51.434;6.786;2022-12-07T01:16:24;6.00;98.10
36856;DHT22;22788;51.434;6.786;2022-12-07T01:18:52;6.00;97.90
36856;DHT22;22788;51.434;6.786;2022-12-07T01:21:20;6.00;97.60
36856;DHT22;22788;51.434;6.786;2022-12-07T01:23:47;6.10;97.80
36856;DHT22;22788;51.434;6.786;2022-12-07T01:26:15;6.00;97.60
36856;DHT22;22788;51.434;6.786;2022-12-07T01:28:42;6.10;97.30
36856;DHT22;22788;51.434;6.786;2022-12-07T01:31:11;6.10;98.30
36856;DHT22;22788;51.434;6.786;2022-12-07T01:33:38;6.00;98.20
36856;DHT22;22788;51.434;6.786;2022-12-07T01:36:06;6.00;98.20
36856;DHT22;22788;51.434;6.786;2022-12-07T01:38:33;6.00;98.00
36856;DHT22;22788;51.434;6.786;2022-12-07T01:41:00;5.90;98.70
36856;DHT22;22788;51.434;6.786;2022-12-07T01:43:32;6.00;98.40
36856;DHT22;22788;51.434;6.786;2022-12-07T01:45:59;6.00;97.50
36856;DHT22;22788;51.434;6.786;2022-12-07T01:48:29;6.00;98.10
36856;DHT22;22788;51.434;6.786;2022-12-07T01:51:02;6.10;97.60
36856;DHT22;22788;51.434;6.786;2022-12-07T01:53:32;6.10;97.60
36856;DHT22;22788;51.434;6.786;2022-12-07T01:56:02;6.10;97.30
36856;DHT22;22788;51.434;6.786;2022-12-07T01:58:28;6.00;98.10
36856;DHT22;22788;51.434;6.786;2022-12-07T02:00:56;6.10;97.60
36856;DHT22;22788;51.434;6.786;2022-12-07T02:03:29;6.00;98.10
36856;DHT22;22788;51.434;6.786;2022-12-07T02:05:58;6.00;97.60
36856;DHT22;22788;51.434;6.786;2022-12-07T02:08:27;6.00;98.40
36856;DHT22;22788;51.434;6.786;2022-12-07T02:10:55;6.00;97.80
36856;DHT22;22788;51.434;6.786;2022-12-07T02:13:26;6.00;97.80
36856;DHT22;22788;51.434;6.786;2022-12-07T02:16:09;6.00;98.10
36856;DHT22;22788;51.434;6.786;2022-12-07T02:18:50;6.00;97.90
36856;DHT22;22788;51.434;6.786;2022-12-07T02:21:27;6.00;98.20
36856;DHT22;22788;51.434;6.786;2022-12-07T02:24:19;6.00;97.80
36856;DHT22;22788;51.434;6.786;2022-12-07T02:27:06;6.00;97.80
36856;DHT22;22788;51.434;6.786;2022-12-07T02:29:40;6.10;97.40
36856;DHT22;22788;51.434;6.786;2022-12-07T02:32:10;6.00;97.60
36856;DHT22;22788;51.434;6.786;2022-12-07T02:34:43;6.00;97.80
36856;DHT22;22788;51.434;6.786;2022-12-07T02:37:17;6.00;97.50
36856;DHT22;22788;51.434;6.786;2022-12-07T02:39:49;6.10;97.30
36856;DHT22;22788;51.434;6.786;2022-12-07T02:42:19;6.00;97.70
36856;DHT22;22788;51.434;6.786;2022-12-07T02:44:49;6.00;97.40
36856;DHT22;22788;51.434;6.786;2022-12-07T02:47:17;6.10;97.70
36856;DHT22;22788;51.434;6.786;2022-12-07T02:49:46;5.90;98.50
36856;DHT22;22788;51.434;6.786;2022-12-07T02:52:12;5.90;98.10
36856;DHT22;22788;51.434;6.786;2022-12-07T02:54:38;5.90;98.20
36856;DHT22;22788;51.434;6.786;2022-12-07T02:57:17;5.90;98.10
36856;DHT22;22788;51.434;6.786;2022-12-07T02:59:59;6.00;97.70
36856;DHT22;22788;51.434;6.786;2022-12-07T03:02:34;6.00;97.70
36856;DHT22;22788;51.434;6.786;2022-12-07T03:05:13;5.90;98.00
36856;DHT22;22788;51.434;6.786;2022-12-07T03:07:48;5.90;97.80
36856;DHT22;22788;51.434;6.786;2022-12-07T03:10:22;5.90;98.10
36856;DHT22;22788;51.434;6.786;2022-12-07T03:12:59;6.00;97.70
36856;DHT22;22788;51.434;6.786;2022-12-07T03:15:32;6.00;97.50
36856;DHT22;22788;51.434;6.786;2022-12-07T03:18:01;6.00;97.30
36856;DHT22;22788;51.434;6.786;2022-12-07T03:20:29;5.90;97.80
36856;DHT22;22788;51.434;6.786;2022-12-07T03:22:56;6.00;97.50
36856;DHT22;22788;51.434;6.786;2022-12-07T03:25:23;6.00;97.30
36856;DHT22;22788;51.434;6.786;2022-12-07T03:27:53;6.10;97.20
36856;DHT22;22788;51.434;6.786;2022-12-07T03:30:22;6.10;97.10
36856;DHT22;22788;51.434;6.786;2022-12-07T03:32:53;6.00;97.30
36856;DHT22;22788;51.434;6.786;2022-12-07T03:35:25;6.00;97.50
36856;DHT22;22788;51.434;6.786;2022-12-07T03:37:56;6.00;97.30
36856;DHT22;22788;51.434;6.786;2022-12-07T03:40:28;6.00;97.20
36856;DHT22;22788;51.434;6.786;2022-12-07T03:42:56;6.10;97.20
36856;DHT22;22788;51.434;6.786;2022-12-07T03:45:32;6.10;97.20
36856;DHT22;22788;51.434;6.786;2022-12-07T03:48:05;6.00;97.30
36856;DHT22;22788;51.434;6.786;2022-12-07T03:50:38;6.00;97.50
36856;DHT22;22788;51.434;6.786;2022-12-07T03:53:12;6.00;97.30
36856;DHT22;22788;51.434;6.786;2022-12-07T03:55:42;6.00;97.40
36856;DHT22;22788;51.434;6.786;2022-12-07T03:58:18;6.00;97.40
36856;DHT22;22788;51.434;6.786;2022-12-07T04:00:46;5.90;97.30
36856;DHT22;22788;51.434;6.786;2022-12-07T04:03:14;5.90;97.40
36856;DHT22;22788;51.434;6.786;2022-12-07T04:05:40;5.90;97.40
36856;DHT22;22788;51.434;6.786;2022-12-07T04:08:07;5.90;97.60
36856;DHT22;22788;51.434;6.786;2022-12-07T04:10:33;6.00;97.50
36856;DHT22;22788;51.434;6.786;2022-12-07T04:12:59;5.90;97.90
36856;DHT22;22788;51.434;6.786;2022-12-07T04:15:25;5.90;97.70
36856;DHT22;22788;51.434;6.786;2022-12-07T04:17:51;6.00;97.30
36856;DHT22;22788;51.434;6.786;2022-12-07T04:20:18;6.00;97.40
36856;DHT22;22788;51.434;6.786;2022-12-07T04:22:45;5.90;97.80
36856;DHT22;22788;51.434;6.786;2022-12-07T04:25:11;6.00;97.50
36856;DHT22;22788;51.434;6.786;2022-12-07T04:27:37;5.90;97.50
36856;DHT22;22788;51.434;6.786;2022-12-07T04:30:04;5.80;97.80
36856;DHT22;22788;51.434;6.786;2022-12-07T04:32:30;5.80;97.70
36856;DHT22;22788;51.434;6.786;2022-12-07T04:34:56;5.80;97.60
36856;DHT22;22788;51.434;6.786;2022-12-07T04:37:24;6.00;97.40
36856;DHT22;22788;51.434;6.786;2022-12-07T04:39:50;6.00;97.30
36856;DHT22;22788;51.434;6.786;2022-12-07T04:42:16;6.00;97.20
36856;DHT22;22788;51.434;6.786;2022-12-07T04:44:42;6.00;97.10
36856;DHT22;22788;51.434;6.786;2022-12-07T04:47:08;6.00;97.20
36856;DHT22;22788;51.434;6.786;2022-12-07T04:49:34;6.00;97.00
36856;DHT22;22788;51.434;6.786;2022-12-07T04:52:00;6.00;97.10
36856;DHT22;22788;51.434;6.786;2022-12-07T04:54:28;6.00;97.10
36856;DHT22;22788;51.434;6.786;2022-12-07T04:56:54;6.00;97.00
36856;DHT22;22788;51.434;6.786;2022-12-07T04:59:20;6.10;97.20
36856;DHT22;22788;51.434;6.786;2022-12-07T05:01:46;6.00;97.10
36856;DHT22;22788;51.434;6.786;2022-12-07T05:04:12;6.00;97.10
36856;DHT22;22788;51.434;6.786;2022-12-07T05:06:38;6.00;97.20
36856;DHT22;22788;51.434;6.786;2022-12-07T05:09:05;6.00;97.20
36856;DHT22;22788;51.434;6.786;2022-12-07T05:11:32;6.00;97.00
36856;DHT22;22788;51.434;6.786;2022-12-07T05:13:58;6.00;97.10
36856;DHT22;22788;51.434;6.786;2022-12-07T05:16:24;6.00;97.20
36856;DHT22;22788;51.434;6.786;2022-12-07T05:18:50;6.00;97.10
36856;DHT22;22788;51.434;6.786;2022-12-07T05:21:16;6.00;97.30
36856;DHT22;22788;51.434;6.786;2022-12-07T05:23:43;5.90;97.20
36856;DHT22;22788;51.434;6.786;2022-12-07T05:26:09;5.90;97.20
36856;DHT22;22788;51.434;6.786;2022-12-07T05:28:36;5.90;97.40
36856;DHT22;22788;51.434;6.786;2022-12-07T05:31:02;6.00;97.10
36856;DHT22;22788;51.434;6.786;2022-12-07T05:33:28;6.00;97.20
36856;DHT22;22788;51.434;6.786;2022-12-07T05:35:54;6.00;97.10
36856;DHT22;22788;51.434;6.786;2022-12-07T05:38:20;6.10;97.00
36856;DHT22;22788;51.434;6.786;2022-12-07T05:40:46;6.00;96.90
36856;DHT22;22788;51.434;6.786;2022-12-07T05:43:12;6.00;97.20
36856;DHT22;22788;51.434;6.786;2022-12-07T05:45:40;6.00;97.20
36856;DHT22;22788;51.434;6.786;2022-12-07T05:48:06;6.00;97.10
36856;DHT22;22788;51.434;6.786;2022-12-07T05:50:32;5.90;97.30
36856;DHT22;22788;51.434;6.786;2022-12-07T05:52:58;6.00;97.10
36856;DHT22;22788;51.434;6.786;2022-12-07T05:55:24;6.00;97.10
36856;DHT22;22788;51.434;6.786;2022-12-07T05:57:50;6.00;97.10
36856;DHT22;22788;51.434;6.786;2022-12-07T06:00:16;6.00;97.00
36856;DHT22;22788;51.434;6.786;2022-12-07T06:02:44;6.00;97.20
36856;DHT22;22788;51.434;6.786;2022-12-07T06:05:10;6.00;97.10
36856;DHT22;22788;51.434;6.786;2022-12-07T06:07:36;5.80;97.30
36856;DHT22;22788;51.434;6.786;2022-12-07T06:10:02;5.90;97.50
36856;DHT22;22788;51.434;6.786;2022-12-07T06:12:28;5.90;97.10
36856;DHT22;22788;51.434;6.786;2022-12-07T06:14:54;5.90;97.10
36856;DHT22;22788;51.434;6.786;2022-12-07T06:17:20;5.90;97.20
36856;DHT22;22788;51.434;6.786;2022-12-07T06:19:48;5.90;97.30
36856;DHT22;22788;51.434;6.786;2022-12-07T06:22:14;5.90;97.20
36856;DHT22;22788;51.434;6.786;2022-12-07T06:24:40;5.90;97.20
36856;DHT22;22788;51.434;6.786;2022-12-07T06:27:06;5.90;97.20
36856;DHT22;22788;51.434;6.786;2022-12-07T06:29:32;6.00;97.20
36856;DHT22;22788;51.434;6.786;2022-12-07T06:31:58;5.90;97.10
36856;DHT22;22788;51.434;6.786;2022-12-07T06:34:26;5.80;97.40
36856;DHT22;22788;51.434;6.786;2022-12-07T06:36:54;5.80;97.20
36856;DHT22;22788;51.434;6.786;2022-12-07T06:39:21;5.80;97.30
36856;DHT22;22788;51.434;6.786;2022-12-07T06:41:47;5.90;97.20
36856;DHT22;22788;51.434;6.786;2022-12-07T06:44:14;6.00;97.20
36856;DHT22;22788;51.434;6.786;2022-12-07T06:46:40;6.00;97.10
36856;DHT22;22788;51.434;6.786;2022-12-07T06:49:06;5.90;97.40
36856;DHT22;22788;51.434;6.786;2022-12-07T06:51:33;6.00;97.10
36856;DHT22;22788;51.434;6.786;2022-12-07T06:54:01;5.90;97.20
36856;DHT22;22788;51.434;6.786;2022-12-07T06:56:27;5.90;97.20
36856;DHT22;22788;51.434;6.786;2022-12-07T06:58:53;5.90;97.20
36856;DHT22;22788;51.434;6.786;2022-12-07T07:01:19;5.80;97.20
36856;DHT22;22788;51.434;6.786;2022-12-07T07:03:45;5.80;97.30
36856;DHT22;22788;51.434;6.786;2022-12-07T07:06:12;5.90;97.20
36856;DHT22;22788;51.434;6.786;2022-12-07T07:08:39;5.90;97.20
36856;DHT22;22788;51.434;6.786;2022-12-07T07:11:07;5.90;97.20
36856;DHT22;22788;51.434;6.786;2022-12-07T07:13:34;5.90;97.10
36856;DHT22;22788;51.434;6.786;2022-12-07T07:16:09;5.90;97.20
36856;DHT22;22788;51.434;6.786;2022-12-07T07:18:48;5.90;97.10
36856;DHT22;22788;51.434;6.786;2022-12-07T07:21:30;6.00;97.10
36856;DHT22;22788;51.434;6.786;2022-12-07T07:24:11;5.90;97.10
36856;DHT22;22788;51.434;6.786;2022-12-07T07:26:45;6.00;97.10
36856;DHT22;22788;51.434;6.786;2022-12-07T07:29:12;6.00;97.00
36856;DHT22;22788;51.434;6.786;2022-12-07T07:31:39;6.00;97.00
36856;DHT22;22788;51.434;6.786;2022-12-07T07:34:07;6.00;97.00
36856;DHT22;22788;51.434;6.786;2022-12-07T07:36:34;6.00;97.00
36856;DHT22;22788;51.434;6.786;2022-12-07T07:39:03;6.00;97.00
36856;DHT22;22788;51.434;6.786;2022-12-07T07:41:30;5.90;97.40
36856;DHT22;22788;51.434;6.786;2022-12-07T07:44:00;5.80;97.20
36856;DHT22;22788;51.434;6.786;2022-12-07T07:46:28;5.80;97.50
36856;DHT22;22788;51.434;6.786;2022-12-07T07:48:56;5.80;97.30
36856;DHT22;22788;51.434;6.786;2022-12-07T07:51:24;5.80;97.40
36856;DHT22;22788;51.434;6.786;2022-12-07T07:53:52;5.80;97.40
36856;DHT22;22788;51.434;6.786;2022-12-07T07:56:18;5.80;97.30
36856;DHT22;22788;51.434;6.786;2022-12-07T07:58:46;5.90;97.20
36856;DHT22;22788;51.434;6.786;2022-12-07T08:01:16;5.90;97.20
36856;DHT22;22788;51.434;6.786;2022-12-07T08:03:44;5.90;97.10
36856;DHT22;22788;51.434;6.786;2022-12-07T08:06:12;5.90;97.10
36856;DHT22;22788;51.434;6.786;2022-12-07T08:08:40;5.90;97.10
36856;DHT22;22788;51.434;6.786;2022-12-07T08:11:08;5.90;97.20
36856;DHT22;22788;51.434;6.786;2022-12-07T08:13:37;6.00;97.10
36856;DHT22;22788;51.434;6.786;2022-12-07T08:16:06;5.90;97.10
36856;DHT22;22788;51.434;6.786;2022-12-07T08:18:38;5.90;97.10
36856;DHT22;22788;51.434;6.786;2022-12-07T08:21:09;5.90;97.10
36856;DHT22;22788;51.434;6.786;2022-12-07T08:23:37;5.90;97.10
36856;DHT22;22788;51.434;6.786;2022-12-07T08:26:06;5.90;97.00
36856;DHT22;22788;51.434;6.786;2022-12-07T08:28:35;5.90;97.20
36856;DHT22;22788;51.434;6.786;2022-12-07T08:31:05;5.80;97.20
36856;DHT22;22788;51.434;6.786;2022-12-07T08:33:34;5.80;97.00
36856;DHT22;22788;51.434;6.786;2022-12-07T08:36:06;5.90;97.30
36856;DHT22;22788;51.434;6.786;2022-12-07T08:38:36;5.80;97.30
36856;DHT22;22788;51.434;6.786;2022-12-07T08:41:04;5.90;97.30
36856;DHT22;22788;51.434;6.786;2022-12-07T08:43:33;5.90;97.20
36856;DHT22;22788;51.434;6.786;2022-12-07T08:46:06;5.90;97.10
36856;DHT22;22788;51.434;6.786;2022-12-07T08:48:38;5.80;97.30
36856;DHT22;22788;51.434;6.786;2022-12-07T08:51:08;5.80;97.50
36856;DHT22;22788;51.434;6.786;2022-12-07T08:53:38;5.80;97.50
36856;DHT22;22788;51.434;6.786;2022-12-07T08:56:07;5.70;97.50
36856;DHT22;22788;51.434;6.786;2022-12-07T08:58:36;5.70;97.50
36856;DHT22;22788;51.434;6.786;2022-12-07T09:01:03;5.80;97.30
36856;DHT22;22788;51.434;6.786;2022-12-07T09:03:30;5.90;97.30
36856;DHT22;22788;51.434;6.786;2022-12-07T09:05:56;5.70;97.50
36856;DHT22;22788;51.434;6.786;2022-12-07T09:08:27;5.80;97.50
36856;DHT22;22788;51.434;6.786;2022-12-07T09:10:54;5.80;97.30
36856;DHT22;22788;51.434;6.786;2022-12-07T09:13:20;5.80;97.10
36856;DHT22;22788;51.434;6.786;2022-12-07T09:15:47;5.80;97.40
36856;DHT22;22788;51.434;6.786;2022-12-07T09:18:13;5.80;97.30
36856;DHT22;22788;51.434;6.786;2022-12-07T09:20:39;5.80;97.40
36856;DHT22;22788;51.434;6.786;2022-12-07T09:23:05;5.80;97.40
36856;DHT22;22788;51.434;6.786;2022-12-07T09:25:33;5.90;97.10
36856;DHT22;22788;51.434;6.786;2022-12-07T09:27:59;5.90;97.20
36856;DHT22;22788;51.434;6.786;2022-12-07T09:30:26;5.80;97.20
36856;DHT22;22788;51.434;6.786;2022-12-07T09:32:53;5.80;97.20
36856;DHT22;22788;51.434;6.786;2022-12-07T09:35:19;5.80;97.40
36856;DHT22;22788;51.434;6.786;2022-12-07T09:37:45;5.70;97.50
36856;DHT22;22788;51.434;6.786;2022-12-07T09:40:12;5.70;97.60
36856;DHT22;22788;51.434;6.786;2022-12-07T09:42:44;5.80;97.70
36856;DHT22;22788;51.434;6.786;2022-12-07T09:45:14;5.80;97.70
36856;DHT22;22788;51.434;6.786;2022-12-07T09:47:41;5.80;97.40
36856;DHT22;22788;51.434;6.786;2022-12-07T09:50:13;5.90;97.40
36856;DHT22;22788;51.434;6.786;2022-12-07T09:52:40;5.90;97.20
36856;DHT22;22788;51.434;6.786;2022-12-07T09:55:12;5.90;97.20
36856;DHT22;22788;51.434;6.786;2022-12-07T09:57:40;5.90;97.30
36856;DHT22;22788;51.434;6.786;2022-12-07T10:00:13;5.90;97.40
36856;DHT22;22788;51.434;6.786;2022-12-07T10:02:40;5.90;97.30
36856;DHT22;22788;51.434;6.786;2022-12-07T10:05:10;5.90;97.20
36856;DHT22;22788;51.434;6.786;2022-12-07T10:07:38;5.90;97.20
36856;DHT22;22788;51.434;6.786;2022-12-07T10:10:05;6.00;97.30
36856;DHT22;22788;51.434;6.786;2022-12-07T10:12:54;5.90;97.90
36856;DHT22;22788;51.434;6.786;2022-12-07T10:15:21;6.00;97.20
36856;DHT22;22788;51.434;6.786;2022-12-07T10:17:49;5.90;97.70
36856;DHT22;22788;51.434;6.786;2022-12-07T10:20:18;6.00;97.50
36856;DHT22;22788;51.434;6.786;2022-12-07T10:22:59;6.00;97.40
36856;DHT22;22788;51.434;6.786;2022-12-07T10:25:28;6.00;97.80
36856;DHT22;22788;51.434;6.786;2022-12-07T10:28:00;6.00;97.60
36856;DHT22;22788;51.434;6.786;2022-12-07T10:30:27;6.00;97.60
36856;DHT22;22788;51.434;6.786;2022-12-07T10:32:53;6.10;97.80
36856;DHT22;22788;51.434;6.786;2022-12-07T10:35:22;6.10;97.50
36856;DHT22;22788;51.434;6.786;2022-12-07T10:37:50;6.10;97.50
36856;DHT22;22788;51.434;6.786;2022-12-07T10:40:31;6.10;97.60
36856;DHT22;22788;51.434;6.786;2022-12-07T10:43:03;6.10;97.50
36856;DHT22;22788;51.434;6.786;2022-12-07T10:45:30;6.10;97.40
36856;DHT22;22788;51.434;6.786;2022-12-07T10:48:01;6.10;97.80
36856;DHT22;22788;51.434;6.786;2022-12-07T10:50:43;6.10;97.50
36856;DHT22;22788;51.434;6.786;2022-12-07T10:53:31;6.10;97.50
36856;DHT22;22788;51.434;6.786;2022-12-07T10:56:17;6.10;97.90
36856;DHT22;22788;51.434;6.786;2022-12-07T10:58:56;6.10;97.80
36856;DHT22;22788;51.434;6.786;2022-12-07T11:01:30;6.10;97.30
36856;DHT22;22788;51.434;6.786;2022-12-07T11:07:01;6.10;97.80
36856;DHT22;22788;51.434;6.786;2022-12-07T11:09:50;6.20;97.60
36856;DHT22;22788;51.434;6.786;2022-12-07T11:12:27;6.10;97.40
36856;DHT22;22788;51.434;6.786;2022-12-07T11:15:02;6.10;97.30
36856;DHT22;22788;51.434;6.786;2022-12-07T11:17:35;6.10;97.60
36856;DHT22;22788;51.434;6.786;2022-12-07T11:20:11;6.20;97.40
36856;DHT22;22788;51.434;6.786;2022-12-07T11:22:46;6.20;97.40
36856;DHT22;22788;51.434;6.786;2022-12-07T11:25:23;6.20;97.40
36856;DHT22;22788;51.434;6.786;2022-12-07T11:28:11;6.20;97.20
36856;DHT22;22788;51.434;6.786;2022-12-07T11:30:47;6.20;97.00
36856;DHT22;22788;51.434;6.786;2022-12-07T11:33:20;6.20;97.00
36856;DHT22;22788;51.434;6.786;2022-12-07T11:35:56;6.20;96.90
36856;DHT22;22788;51.434;6.786;2022-12-07T11:38:36;6.20;96.70
36856;DHT22;22788;51.434;6.786;2022-12-07T11:41:05;6.20;96.80
36856;DHT22;22788;51.434;6.786;2022-12-07T11:43:32;6.30;96.90
36856;DHT22;22788;51.434;6.786;2022-12-07T11:46:04;6.30;96.80
36856;DHT22;22788;51.434;6.786;2022-12-07T11:48:33;6.30;96.70
36856;DHT22;22788;51.434;6.786;2022-12-07T11:51:02;6.30;96.90
36856;DHT22;22788;51.434;6.786;2022-12-07T11:53:32;6.20;96.90
36856;DHT22;22788;51.434;6.786;2022-12-07T11:56:03;6.30;96.90
36856;DHT22;22788;51.434;6.786;2022-12-07T11:58:40;6.30;97.10
36856;DHT22;22788;51.434;6.786;2022-12-07T12:01:18;6.30;97.20
36856;DHT22;22788;51.434;6.786;2022-12-07T12:03:51;6.40;97.20
36856;DHT22;22788;51.434;6.786;2022-12-07T12:06:17;6.40;97.10
36856;DHT22;22788;51.434;6.786;2022-12-07T12:08:48;6.40;96.70
36856;DHT22;22788;51.434;6.786;2022-12-07T12:11:28;6.40;96.60
36856;DHT22;22788;51.434;6.786;2022-12-07T12:17:45;6.30;96.80
36856;DHT22;22788;51.434;6.786;2022-12-07T12:20:21;6.40;97.00
36856;DHT22;22788;51.434;6.786;2022-12-07T12:22:51;6.30;96.70
36856;DHT22;22788;51.434;6.786;2022-12-07T12:25:22;6.40;96.90
36856;DHT22;22788;51.434;6.786;2022-12-07T12:27:50;6.40;96.80
36856;DHT22;22788;51.434;6.786;2022-12-07T12:30:35;6.30;96.80
36856;DHT22;22788;51.434;6.786;2022-12-07T12:33:06;6.40;96.80
36856;DHT22;22788;51.434;6.786;2022-12-07T12:35:37;6.40;96.60
36856;DHT22;22788;51.434;6.786;2022-12-07T12:38:30;6.40;96.50
36856;DHT22;22788;51.434;6.786;2022-12-07T12:40:57;6.40;96.70
36856;DHT22;22788;51.434;6.786;2022-12-07T12:43:43;6.40;96.60
36856;DHT22;22788;51.434;6.786;2022-12-07T12:46:45;6.50;96.30
36856;DHT22;22788;51.434;6.786;2022-12-07T12:49:36;6.40;96.30
36856;DHT22;22788;51.434;6.786;2022-12-07T12:55:16;6.40;96.50
36856;DHT22;22788;51.434;6.786;2022-12-07T12:57:42;6.50;96.50
36856;DHT22;22788;51.434;6.786;2022-12-07T13:00:18;6.50;96.30
36856;DHT22;22788;51.434;6.786;2022-12-07T13:02:49;6.40;96.40
36856;DHT22;22788;51.434;6.786;2022-12-07T13:05:20;6.40;96.40
36856;DHT22;22788;51.434;6.786;2022-12-07T13:07:58;6.40;96.50
36856;DHT22;22788;51.434;6.786;2022-12-07T13:10:38;6.40;96.30
36856;DHT22;22788;51.434;6.786;2022-12-07T13:13:34;6.50;96.30
36856;DHT22;22788;51.434;6.786;2022-12-07T13:25:30;6.50;96.50
36856;DHT22;22788;51.434;6.786;2022-12-07T13:28:01;6.50;96.50
36856;DHT22;22788;51.434;6.786;2022-12-07T13:30:29;6.50;96.60
36856;DHT22;22788;51.434;6.786;2022-12-07T13:32:57;6.50;96.60
36856;DHT22;22788;51.434;6.786;2022-12-07T13:35:34;6.50;96.60
36856;DHT22;22788;51.434;6.786;2022-12-07T13:38:05;6.50;96.70
36856;DHT22;22788;51.434;6.786;2022-12-07T13:40:31;6.50;96.80
36856;DHT22;22788;51.434;6.786;2022-12-07T13:42:58;6.50;96.70
36856;DHT22;22788;51.434;6.786;2022-12-07T13:45:26;6.50;96.70
36856;DHT22;22788;51.434;6.786;2022-12-07T13:47:54;6.50;96.70
36856;DHT22;22788;51.434;6.786;2022-12-07T13:50:25;6.50;96.60
36856;DHT22;22788;51.434;6.786;2022-12-07T13:52:55;6.50;96.70
36856;DHT22;22788;51.434;6.786;2022-12-07T13:55:23;6.50;96.80
36856;DHT22;22788;51.434;6.786;2022-12-07T13:57:51;6.50;96.70
36856;DHT22;22788;51.434;6.786;2022-12-07T14:00:19;6.50;96.80
36856;DHT22;22788;51.434;6.786;2022-12-07T14:02:55;6.50;96.70
36856;DHT22;22788;51.434;6.786;2022-12-07T14:05:24;6.50;96.60
36856;DHT22;22788;51.434;6.786;2022-12-07T14:07:54;6.50;96.60
36856;DHT22;22788;51.434;6.786;2022-12-07T14:10:27;6.50;96.50
36856;DHT22;22788;51.434;6.786;2022-12-07T14:12:53;6.50;96.30
36856;DHT22;22788;51.434;6.786;2022-12-07T14:15:22;6.40;96.20
36856;DHT22;22788;51.434;6.786;2022-12-07T14:17:52;6.40;96.00
36856;DHT22;22788;51.434;6.786;2022-12-07T14:20:33;6.40;96.40
36856;DHT22;22788;51.434;6.786;2022-12-07T14:22:59;6.40;96.20
36856;DHT22;22788;51.434;6.786;2022-12-07T14:25:27;6.40;96.50
36856;DHT22;22788;51.434;6.786;2022-12-07T14:27:56;6.40;96.40
36856;DHT22;22788;51.434;6.786;2022-12-07T14:30:24;6.50;96.50
36856;DHT22;22788;51.434;6.786;2022-12-07T14:32:52;6.40;96.50
36856;DHT22;22788;51.434;6.786;2022-12-07T14:35:19;6.50;96.50
36856;DHT22;22788;51.434;6.786;2022-12-07T14:37:47;6.40;96.50
36856;DHT22;22788;51.434;6.786;2022-12-07T14:40:14;6.40;96.50
36856;DHT22;22788;51.434;6.786;2022-12-07T14:42:42;6.50;96.50
36856;DHT22;22788;51.434;6.786;2022-12-07T14:45:13;6.50;96.50
36856;DHT22;22788;51.434;6.786;2022-12-07T14:47:40;6.50;96.40
36856;DHT22;22788;51.434;6.786;2022-12-07T14:50:07;6.50;96.40
36856;DHT22;22788;51.434;6.786;2022-12-07T14:52:34;6.50;96.50
36856;DHT22;22788;51.434;6.786;2022-12-07T14:55:00;6.50;96.50
36856;DHT22;22788;51.434;6.786;2022-12-07T14:57:26;6.50;96.40
36856;DHT22;22788;51.434;6.786;2022-12-07T14:59:55;6.50;96.50
36856;DHT22;22788;51.434;6.786;2022-12-07T15:02:21;6.50;96.50
36856;DHT22;22788;51.434;6.786;2022-12-07T15:04:47;6.50;96.40
36856;DHT22;22788;51.434;6.786;2022-12-07T15:07:18;6.50;96.50
36856;DHT22;22788;51.434;6.786;2022-12-07T15:09:44;6.50;96.40
36856;DHT22;22788;51.434;6.786;2022-12-07T15:12:10;6.40;96.40
36856;DHT22;22788;51.434;6.786;2022-12-07T15:14:36;6.50;96.60
36856;DHT22;22788;51.434;6.786;2022-12-07T15:17:04;6.50;96.50
36856;DHT22;22788;51.434;6.786;2022-12-07T15:19:30;6.50;96.50
36856;DHT22;22788;51.434;6.786;2022-12-07T15:21:56;6.50;96.50
36856;DHT22;22788;51.434;6.786;2022-12-07T15:24:23;6.50;96.40
36856;DHT22;22788;51.434;6.786;2022-12-07T15:26:49;6.50;96.40
36856;DHT22;22788;51.434;6.786;2022-12-07T15:29:15;6.50;96.40
36856;DHT22;22788;51.434;6.786;2022-12-07T15:31:42;6.50;96.40
36856;DHT22;22788;51.434;6.786;2022-12-07T15:34:09;6.50;96.40
36856;DHT22;22788;51.434;6.786;2022-12-07T15:36:35;6.50;96.60
36856;DHT22;22788;51.434;6.786;2022-12-07T15:39:02;6.50;96.50
36856;DHT22;22788;51.434;6.786;2022-12-07T15:41:28;6.50;96.50
36856;DHT22;22788;51.434;6.786;2022-12-07T15:43:54;6.50;96.40
36856;DHT22;22788;51.434;6.786;2022-12-07T15:46:20;6.50;96.50
36856;DHT22;22788;51.434;6.786;2022-12-07T15:48:46;6.50;96.50
36856;DHT22;22788;51.434;6.786;2022-12-07T15:51:15;6.50;96.50
36856;DHT22;22788;51.434;6.786;2022-12-07T15:53:41;6.50;96.50
36856;DHT22;22788;51.434;6.786;2022-12-07T15:56:08;6.50;96.50
36856;DHT22;22788;51.434;6.786;2022-12-07T15:58:34;6.50;96.50
36856;DHT22;22788;51.434;6.786;2022-12-07T16:01:00;6.50;96.40
36856;DHT22;22788;51.434;6.786;2022-12-07T16:03:27;6.50;96.40
36856;DHT22;22788;51.434;6.786;2022-12-07T16:05:53;6.60;96.50
36856;DHT22;22788;51.434;6.786;2022-12-07T16:08:20;6.50;96.40
36856;DHT22;22788;51.434;6.786;2022-12-07T16:10:46;6.50;96.30
36856;DHT22;22788;51.434;6.786;2022-12-07T16:13:12;6.50;96.40
36856;DHT22;22788;51.434;6.786;2022-12-07T16:15:39;6.40;96.60
36856;DHT22;22788;51.434;6.786;2022-12-07T16:18:05;6.40;96.50